Time;durP1;ratioP1;P1;durP2;ratioP2;P2;SDS_P1;SDS_P2;PMS_P1;PMS_P2;Temp;Humidity;BMP_temperature;BMP_pressure;BME280_temperature;BME280_humidity;BME280_pressure;Samples;Min_cycle;Max_cycle;Signal;HPM_P1;HPM_P2
2023/09/10 00:00:23;;;;;;;5.47;3.67;;;;;;;;;;10385395;22;20029;-73
2023/09/10 00:04:24;;;;;;;5.55;3.60;;;;;;;;;;10384703;22;19999;-74
2023/09/10 00:08:24;;;;;;;4.32;3.75;;;;;;;;;;10390300;22;20465;-74
2023/09/10 00:12:24;;;;;;;4.17;3.77;;;;;;;;;;10386446;22;20841;-73
2023/09/10 00:16:24;;;;;;;4.38;3.88;;;;;;;;;;10389802;22;20011;-74
2023/09/10 00:20:26;;;;;;;5.38;3.70;;;;;;;;;;10388059;22;20061;-74
2023/09/10 00:24:27;;;;;;;4.70;4.18;;;;;;;;;;10386500;22;19999;-74
2023/09/10 00:28:27;;;;;;;6.50;4.55;;;;;;;;;;10383456;22;20150;-74
2023/09/10 00:32:27;;;;;;;4.63;3.88;;;;;;;;;;10386024;22;20018;-73
2023/09/10 00:36:27;;;;;;;4.35;3.95;;;;;;;;;;10387174;22;20010;-73
2023/09/10 00:40:28;;;;;;;5.07;4.25;;;;;;;;;;10382702;22;20746;-73
2023/09/10 00:44:29;;;;;;;4.38;3.72;;;;;;;;;;10387116;22;20003;-73
2023/09/10 00:48:30;;;;;;;5.65;3.90;;;;;;;;;;10384708;22;20019;-73
2023/09/10 00:52:31;;;;;;;4.05;3.65;;;;;;;;;;10388639;22;20007;-72
2023/09/10 00:56:32;;;;;;;5.95;3.92;;;;;;;;;;10385294;22;20747;-73
2023/09/10 01:00:32;;;;;;;5.53;4.03;;;;;;;;;;10386962;22;20807;-73
2023/09/10 01:04:32;;;;;;;4.75;3.60;;;;;;;;;;10373077;22;20007;-73
2023/09/10 01:08:33;;;;;;;4.53;3.95;;;;;;;;;;10386261;22;20074;-73
2023/09/10 01:12:39;;;;;;;4.57;3.85;;;;;;;;;;10382294;22;20003;-73
2023/09/10 01:16:57;;;;;;;4.10;3.70;;;;;;;;;;10385434;22;20433;-74
2023/09/10 01:21:06;;;;;;;4.40;3.88;;;;;;;;;;10385005;22;20369;-73
2023/09/10 01:25:06;;;;;;;6.97;3.72;;;;;;;;;;10386766;22;20003;-73
2023/09/10 01:29:10;;;;;;;5.35;4.00;;;;;;;;;;10383226;22;20007;-73
2023/09/10 01:33:18;;;;;;;4.07;3.63;;;;;;;;;;10381169;22;20423;-73
2023/09/10 01:37:21;;;;;;;4.45;3.42;;;;;;;;;;10385925;22;19999;-73
2023/09/10 01:41:22;;;;;;;4.50;4.00;;;;;;;;;;10381596;22;20386;-73
2023/09/10 01:45:23;;;;;;;7.25;3.80;;;;;;;;;;10384777;22;20007;-73
2023/09/10 01:49:24;;;;;;;6.50;3.75;;;;;;;;;;10384790;22;20006;-74
2023/09/10 01:53:24;;;;;;;3.95;3.40;;;;;;;;;;10383908;22;20019;-74
2023/09/10 01:57:24;;;;;;;3.72;3.42;;;;;;;;;;10382429;22;20018;-74
2023/09/10 02:01:25;;;;;;;4.38;3.60;;;;;;;;;;10382312;22;20667;-74
2023/09/10 02:05:25;;;;;;;4.00;3.47;;;;;;;;;;10385258;22;20011;-74
2023/09/10 02:09:25;;;;;;;4.57;3.67;;;;;;;;;;10383713;22;20062;-74
2023/09/10 02:13:25;;;;;;;6.10;3.40;;;;;;;;;;10385864;22;20008;-73
2023/09/10 02:17:26;;;;;;;10.23;3.70;;;;;;;;;;10384895;22;20683;-73
2023/09/10 02:21:26;;;;;;;3.67;3.38;;;;;;;;;;10381697;22;20102;-73
2023/09/10 02:25:26;;;;;;;4.10;3.50;;;;;;;;;;10381709;22;20007;-74
2023/09/10 02:29:26;;;;;;;5.95;3.33;;;;;;;;;;10383302;22;20030;-73
2023/09/10 02:33:27;;;;;;;4.78;3.75;;;;;;;;;;10380434;22;20015;-73
2023/09/10 02:37:27;;;;;;;4.13;3.23;;;;;;;;;;10385926;22;19999;-74
2023/09/10 02:41:27;;;;;;;3.50;3.20;;;;;;;;;;10384886;22;20015;-73
2023/09/10 02:45:27;;;;;;;4.07;3.63;;;;;;;;;;10387727;22;20011;-73
2023/09/10 02:49:28;;;;;;;5.67;3.67;;;;;;;;;;10384772;22;20222;-73
2023/09/10 02:53:28;;;;;;;6.37;3.50;;;;;;;;;;10383937;22;20050;-73
2023/09/10 02:57:28;;;;;;;5.53;3.67;;;;;;;;;;10386053;22;20022;-73
2023/09/10 03:01:28;;;;;;;4.03;3.40;;;;;;;;;;10384849;22;20038;-73
2023/09/10 03:05:31;;;;;;;5.22;3.22;;;;;;;;;;10383932;22;20014;-73
2023/09/10 03:09:31;;;;;;;10.33;3.60;;;;;;;;;;10386529;22;19995;-73
2023/09/10 03:13:32;;;;;;;5.15;3.17;;;;;;;;;;10372075;22;20875;-73
2023/09/10 03:17:32;;;;;;;6.60;3.90;;;;;;;;;;10384166;22;20068;-73
2023/09/10 03:21:35;;;;;;;4.27;3.87;;;;;;;;;;10386735;22;19991;-73
2023/09/10 03:25:36;;;;;;;5.32;4.07;;;;;;;;;;10383685;22;20862;-73
2023/09/10 03:29:37;;;;;;;3.80;3.45;;;;;;;;;;10385623;22;20015;-73
2023/09/10 03:33:37;;;;;;;5.17;3.27;;;;;;;;;;10383830;22;20121;-72
2023/09/10 03:37:37;;;;;;;3.95;3.55;;;;;;;;;;10384915;22;20408;-74
2023/09/10 03:41:37;;;;;;;3.85;3.40;;;;;;;;;;10386134;22;20800;-73
2023/09/10 03:45:37;;;;;;;4.47;3.80;;;;;;;;;;10386993;22;20007;-73
2023/09/10 03:49:38;;;;;;;6.55;3.90;;;;;;;;;;10386160;22;20011;-73
2023/09/10 03:53:38;;;;;;;5.22;3.58;;;;;;;;;;10384775;22;20088;-72
2023/09/10 03:57:38;;;;;;;6.10;3.72;;;;;;;;;;10387817;22;20025;-73
2023/09/10 04:01:40;;;;;;;5.22;3.80;;;;;;;;;;10381961;22;20953;-73
2023/09/10 04:05:41;;;;;;;6.05;3.85;;;;;;;;;;10384556;22;20007;-73
2023/09/10 04:09:42;;;;;;;4.23;3.80;;;;;;;;;;10380724;22;20157;-73
2023/09/10 04:13:42;;;;;;;6.35;4.30;;;;;;;;;;10382936;22;20254;-73
2023/09/10 04:17:42;;;;;;;7.27;3.87;;;;;;;;;;10383143;22;20077;-73
2023/09/10 04:21:43;;;;;;;8.23;3.60;;;;;;;;;;10383859;22;20661;-73
2023/09/10 04:25:43;;;;;;;5.00;3.63;;;;;;;;;;10385907;22;20537;-73
2023/09/10 04:29:43;;;;;;;3.90;3.58;;;;;;;;;;10382899;22;20007;-72
2023/09/10 04:33:44;;;;;;;7.25;4.30;;;;;;;;;;10383562;22;20508;-72
2023/09/10 04:37:44;;;;;;;4.40;3.85;;;;;;;;;;10386826;22;20007;-72
2023/09/10 04:41:44;;;;;;;4.47;4.03;;;;;;;;;;10383469;22;20014;-73
2023/09/10 04:45:46;;;;;;;5.18;4.10;;;;;;;;;;10382704;22;20054;-73
2023/09/10 04:49:46;;;;;;;4.78;3.72;;;;;;;;;;10386437;22;20090;-72
2023/09/10 04:53:46;;;;;;;5.22;4.00;;;;;;;;;;10385856;22;20385;-72
2023/09/10 04:57:48;;;;;;;9.40;4.28;;;;;;;;;;10385736;22;20033;-74
2023/09/10 05:01:48;;;;;;;7.75;4.10;;;;;;;;;;10383098;22;20133;-73
2023/09/10 05:05:56;;;;;;;4.82;3.63;;;;;;;;;;10382328;22;20007;-74
2023/09/10 05:09:56;;;;;;;4.25;3.83;;;;;;;;;;10380190;22;20011;-72
2023/09/10 05:13:56;;;;;;;6.13;3.93;;;;;;;;;;10380636;22;20003;-71
2023/09/10 05:17:57;;;;;;;4.45;4.00;;;;;;;;;;10380232;22;20019;-72
2023/09/10 05:22:00;;;;;;;5.33;3.90;;;;;;;;;;10381513;22;19995;-72
2023/09/10 05:26:03;;;;;;;5.07;3.55;;;;;;;;;;10380345;22;20221;-72
2023/09/10 05:30:03;;;;;;;5.25;4.00;;;;;;;;;;10379827;22;20007;-72
2023/09/10 05:34:04;;;;;;;6.45;4.50;;;;;;;;;;10379936;22;20019;-73
2023/09/10 05:38:05;;;;;;;5.22;4.53;;;;;;;;;;10381786;22;20000;-72
2023/09/10 05:42:05;;;;;;;6.15;4.55;;;;;;;;;;10380599;22;20098;-72
2023/09/10 05:46:05;;;;;;;5.90;4.97;;;;;;;;;;10382557;22;20109;-73
2023/09/10 05:50:06;;;;;;;4.50;4.10;;;;;;;;;;10381265;22;20019;-73
2023/09/10 05:54:06;;;;;;;5.43;4.18;;;;;;;;;;10382651;22;20288;-73
2023/09/10 05:58:07;;;;;;;4.80;4.35;;;;;;;;;;10382902;22;20082;-73
2023/09/10 06:02:07;;;;;;;4.50;4.10;;;;;;;;;;10380524;22;20125;-73
2023/09/10 06:06:07;;;;;;;6.85;4.78;;;;;;;;;;10377560;22;20010;-73
2023/09/10 06:10:09;;;;;;;5.93;4.22;;;;;;;;;;10381388;22;20046;-73
2023/09/10 06:14:09;;;;;;;6.25;4.53;;;;;;;;;;10383763;22;20450;-73
2023/09/10 06:18:10;;;;;;;4.53;4.13;;;;;;;;;;10382223;22;20012;-73
2023/09/10 06:22:10;;;;;;;8.60;4.00;;;;;;;;;;10384853;22;20035;-73
2023/09/10 06:26:10;;;;;;;5.25;4.20;;;;;;;;;;10385348;22;19999;-74
2023/09/10 06:30:10;;;;;;;4.20;3.75;;;;;;;;;;10384914;22;20114;-74
2023/09/10 06:34:11;;;;;;;4.72;3.70;;;;;;;;;;10386147;22;20003;-73
2023/09/10 06:38:11;;;;;;;5.30;3.50;;;;;;;;;;10382967;22;20073;-73
2023/09/10 06:42:12;;;;;;;4.40;3.70;;;;;;;;;;10382479;22;20109;-74
2023/09/10 06:46:13;;;;;;;4.75;3.83;;;;;;;;;;10359034;22;20050;-74
2023/09/10 06:50:13;;;;;;;7.00;3.50;;;;;;;;;;10382563;22;20015;-74
2023/09/10 06:54:13;;;;;;;5.63;3.70;;;;;;;;;;10386255;22;20094;-74
2023/09/10 06:58:17;;;;;;;4.53;3.88;;;;;;;;;;10387717;22;20007;-74
2023/09/10 07:02:17;;;;;;;6.57;4.13;;;;;;;;;;10384463;22;20023;-74
2023/09/10 07:06:17;;;;;;;5.40;3.83;;;;;;;;;;10387014;22;20007;-74
2023/09/10 07:10:17;;;;;;;3.67;3.37;;;;;;;;;;10383275;22;20014;-74
2023/09/10 07:14:18;;;;;;;3.73;3.40;;;;;;;;;;10383642;22;20482;-74
2023/09/10 07:18:19;;;;;;;5.43;3.70;;;;;;;;;;10384470;22;20011;-74
2023/09/10 07:22:19;;;;;;;4.80;3.47;;;;;;;;;;10383941;22;20003;-75
2023/09/10 07:26:19;;;;;;;5.13;3.55;;;;;;;;;;10386386;22;20007;-74
2023/09/10 07:30:20;;;;;;;6.27;3.70;;;;;;;;;;10385454;22;20148;-75
2023/09/10 07:34:21;;;;;;;3.50;3.20;;;;;;;;;;10385111;22;19998;-74
2023/09/10 07:38:21;;;;;;;5.88;2.97;;;;;;;;;;10389768;22;20015;-74
2023/09/10 07:42:21;;;;;;;8.23;3.60;;;;;;;;;;10386165;22;20003;-74
2023/09/10 07:46:22;;;;;;;5.00;3.47;;;;;;;;;;10385714;22;20019;-74
2023/09/10 07:50:22;;;;;;;6.88;3.50;;;;;;;;;;10386534;22;20110;-74
2023/09/10 07:54:22;;;;;;;5.60;3.33;;;;;;;;;;10388712;22;20021;-74
2023/09/10 07:58:23;;;;;;;6.53;3.70;;;;;;;;;;10386973;22;20118;-76
2023/09/10 08:02:26;;;;;;;5.47;3.60;;;;;;;;;;10383116;22;20023;-74
2023/09/10 08:06:28;;;;;;;7.97;3.72;;;;;;;;;;10387001;22;20391;-74
2023/09/10 08:10:28;;;;;;;4.95;3.58;;;;;;;;;;10385196;22;19999;-74
2023/09/10 08:14:29;;;;;;;6.17;3.37;;;;;;;;;;10385375;22;20065;-74
2023/09/10 08:18:29;;;;;;;6.10;3.47;;;;;;;;;;10385919;22;20037;-74
2023/09/10 08:22:29;;;;;;;4.43;3.65;;;;;;;;;;10358700;22;20011;-74
2023/09/10 08:26:30;;;;;;;4.80;4.05;;;;;;;;;;10383480;22;20003;-74
2023/09/10 08:30:30;;;;;;;4.38;3.80;;;;;;;;;;10384479;22;20007;-74
2023/09/10 08:34:30;;;;;;;5.00;3.43;;;;;;;;;;10388605;22;20018;-74
2023/09/10 08:38:31;;;;;;;7.37;3.97;;;;;;;;;;10384997;22;20132;-74
2023/09/10 08:42:37;;;;;;;6.60;4.03;;;;;;;;;;10386308;22;20002;-74
2023/09/10 08:46:39;;;;;;;4.90;3.47;;;;;;;;;;10385186;22;20057;-75
2023/09/10 08:50:40;;;;;;;5.05;3.25;;;;;;;;;;10386321;22;20061;-74
2023/09/10 08:54:40;;;;;;;6.10;3.80;;;;;;;;;;10385220;22;20420;-74
2023/09/10 08:58:42;;;;;;;4.53;3.70;;;;;;;;;;10384504;22;20007;-75
2023/09/10 09:02:42;;;;;;;;;;;;;;;;;;10383307;22;20011;-74
2023/09/10 09:06:47;;;;;;;5.30;3.20;;;;;;;;;;10384147;22;19925;-74
2023/09/10 09:10:47;;;;;;;6.50;3.25;;;;;;;;;;10381511;22;20650;-74
2023/09/10 09:14:49;;;;;;;5.67;3.80;;;;;;;;;;10384814;22;20027;-74
2023/09/10 09:18:50;;;;;;;4.38;3.30;;;;;;;;;;10383220;22;20027;-74
2023/09/10 09:23:20;;;;;;;5.57;3.50;;;;;;;;;;10383756;22;20005;-75
2023/09/10 09:27:20;;;;;;;4.90;3.40;;;;;;;;;;10364502;22;20468;-75
2023/09/10 09:31:21;;;;;;;5.60;3.53;;;;;;;;;;10383495;22;20397;-74
2023/09/10 09:35:21;;;;;;;6.43;3.30;;;;;;;;;;10385987;22;20027;-74
2023/09/10 09:39:25;;;;;;;3.83;3.10;;;;;;;;;;10387177;22;20030;-74
2023/09/10 09:43:25;;;;;;;5.32;3.50;;;;;;;;;;10384715;22;20076;-73
2023/09/10 09:47:25;;;;;;;5.57;3.40;;;;;;;;;;10385297;22;20007;-73
2023/09/10 09:51:26;;;;;;;6.82;3.47;;;;;;;;;;10380614;22;20054;-73
2023/09/10 09:55:26;;;;;;;5.90;3.50;;;;;;;;;;10384604;22;20086;-73
2023/09/10 09:59:26;;;;;;;6.40;3.17;;;;;;;;;;10383939;22;20065;-73
2023/09/10 10:03:28;;;;;;;8.00;3.55;;;;;;;;;;10380522;22;20007;-74
2023/09/10 10:07:29;;;;;;;6.43;3.20;;;;;;;;;;10384727;22;20003;-73
2023/09/10 10:11:30;;;;;;;8.37;3.83;;;;;;;;;;10379747;22;20006;-73
2023/09/10 10:15:30;;;;;;;9.13;3.35;;;;;;;;;;10384296;22;20064;-73
2023/09/10 10:19:31;;;;;;;5.82;3.45;;;;;;;;;;10382942;22;20007;-73
2023/09/10 10:23:31;;;;;;;9.20;3.67;;;;;;;;;;10385187;22;19992;-74
2023/09/10 10:27:34;;;;;;;9.17;3.33;;;;;;;;;;10384852;22;20646;-73
2023/09/10 10:31:37;;;;;;;9.70;3.67;;;;;;;;;;10382054;22;20011;-73
2023/09/10 10:35:41;;;;;;;10.93;3.83;;;;;;;;;;10382318;22;20045;-73
2023/09/10 10:39:56;;;;;;;7.03;3.22;;;;;;;;;;10379554;22;20007;-73
2023/09/10 10:43:59;;;;;;;5.80;3.55;;;;;;;;;;10383965;22;20000;-73
2023/09/10 10:48:03;;;;;;;8.82;3.42;;;;;;;;;;10382519;22;20662;-72
2023/09/10 10:52:05;;;;;;;7.57;3.40;;;;;;;;;;10381355;22;20829;-73
2023/09/10 10:56:06;;;;;;;5.90;3.33;;;;;;;;;;10386243;22;20006;-72
2023/09/10 11:00:12;;;;;;;8.17;3.90;;;;;;;;;;10385961;22;19999;-73
2023/09/10 11:04:18;;;;;;;6.65;3.70;;;;;;;;;;10386343;22;20006;-73
2023/09/10 11:08:32;;;;;;;9.70;3.63;;;;;;;;;;10388036;22;20614;-73
2023/09/10 11:12:32;;;;;;;10.10;3.78;;;;;;;;;;10380097;22;20118;-73
2023/09/10 11:16:33;;;;;;;10.23;3.92;;;;;;;;;;10384750;22;20126;-73
2023/09/10 11:20:50;;;;;;;11.67;3.70;;;;;;;;;;10383700;22;20752;-73
2023/09/10 11:25:05;;;;;;;4.80;3.63;;;;;;;;;;10386074;22;19999;-73
2023/09/10 11:29:07;;;;;;;7.50;4.22;;;;;;;;;;10386556;22;20398;-73
2023/09/10 11:33:26;;;;;;;6.53;3.42;;;;;;;;;;10379510;22;20795;-73
2023/09/10 11:37:26;;;;;;;7.07;3.70;;;;;;;;;;10385509;22;19999;-73
2023/09/10 11:41:27;;;;;;;7.35;3.85;;;;;;;;;;10386477;22;20015;-73
2023/09/10 11:45:31;;;;;;;9.60;3.40;;;;;;;;;;10386650;22;20449;-74
2023/09/10 11:49:31;;;;;;;5.60;3.55;;;;;;;;;;10384438;22;20641;-74
2023/09/10 11:53:31;;;;;;;8.80;3.60;;;;;;;;;;10381654;22;20341;-73
2023/09/10 11:57:31;;;;;;;11.77;3.50;;;;;;;;;;10384363;22;19999;-73
2023/09/10 12:01:32;;;;;;;8.32;3.88;;;;;;;;;;10383903;22;20494;-73
2023/09/10 12:05:32;;;;;;;10.77;3.97;;;;;;;;;;10387627;22;20089;-74
2023/09/10 12:09:33;;;;;;;8.23;3.63;;;;;;;;;;10383504;22;19999;-73
2023/09/10 12:13:35;;;;;;;8.53;3.53;;;;;;;;;;10387351;22;20063;-74
2023/09/10 12:17:35;;;;;;;;;;;;;;;;;;10382136;22;20117;-73
2023/09/10 12:21:35;;;;;;;8.85;3.78;;;;;;;;;;10383676;22;19917;-73
2023/09/10 12:25:36;;;;;;;13.80;3.83;;;;;;;;;;10384333;22;20003;-74
2023/09/10 12:29:36;;;;;;;10.38;3.60;;;;;;;;;;10385779;22;20229;-73
2023/09/10 12:33:36;;;;;;;6.85;3.65;;;;;;;;;;10383621;22;20022;-73
2023/09/10 12:37:45;;;;;;;9.55;3.50;;;;;;;;;;10384951;22;20000;-74
2023/09/10 12:41:53;;;;;;;11.88;3.75;;;;;;;;;;10382585;22;20188;-73
2023/09/10 12:45:53;;;;;;;10.02;3.97;;;;;;;;;;10379611;22;20310;-74
2023/09/10 12:49:54;;;;;;;10.32;3.38;;;;;;;;;;10383821;22;20003;-73
2023/09/10 12:53:54;;;;;;;9.15;3.63;;;;;;;;;;10386202;22;20360;-74
2023/09/10 12:57:54;;;;;;;9.65;4.30;;;;;;;;;;10387631;22;20065;-74
2023/09/10 13:01:55;;;;;;;14.10;3.90;;;;;;;;;;10384489;22;20047;-73
2023/09/10 13:05:56;;;;;;;11.88;3.75;;;;;;;;;;10386420;22;20321;-73
2023/09/10 13:09:57;;;;;;;17.00;3.70;;;;;;;;;;10357259;22;20003;-74
2023/09/10 13:13:57;;;;;;;12.83;4.03;;;;;;;;;;10384864;22;20003;-74
2023/09/10 13:17:57;;;;;;;8.45;3.35;;;;;;;;;;10382803;22;20094;-73
2023/09/10 13:21:58;;;;;;;11.55;3.55;;;;;;;;;;10385332;22;20094;-73
2023/09/10 13:25:59;;;;;;;13.57;3.90;;;;;;;;;;10383018;22;20026;-74
2023/09/10 13:30:00;;;;;;;15.48;3.67;;;;;;;;;;10385699;22;20003;-74
2023/09/10 13:34:00;;;;;;;15.55;3.70;;;;;;;;;;10381607;22;20019;-73
2023/09/10 13:38:00;;;;;;;17.80;3.70;;;;;;;;;;10385534;22;20009;-74
2023/09/10 13:42:01;;;;;;;14.60;3.95;;;;;;;;;;10384371;22;20006;-73
2023/09/10 13:46:01;;;;;;;14.15;4.07;;;;;;;;;;10385674;22;20435;-73
2023/09/10 13:50:01;;;;;;;12.55;3.25;;;;;;;;;;10384429;22;20011;-74
2023/09/10 13:54:01;;;;;;;11.87;3.77;;;;;;;;;;10383023;22;20079;-73
2023/09/10 13:58:01;;;;;;;13.98;3.88;;;;;;;;;;10388508;22;20014;-73
2023/09/10 14:02:04;;;;;;;9.32;3.58;;;;;;;;;;10386645;22;20023;-73
2023/09/10 14:06:08;;;;;;;11.60;3.70;;;;;;;;;;10386185;22;20445;-74
2023/09/10 14:10:08;;;;;;;9.10;3.15;;;;;;;;;;10382725;22;20003;-74
2023/09/10 14:14:08;;;;;;;14.85;4.00;;;;;;;;;;10387595;22;19999;-73
2023/09/10 14:18:09;;;;;;;15.13;3.60;;;;;;;;;;10384034;22;20009;-74
2023/09/10 14:22:09;;;;;;;11.27;3.08;;;;;;;;;;10381679;22;20007;-73
2023/09/10 14:26:10;;;;;;;12.23;3.57;;;;;;;;;;10383521;22;20852;-73
2023/09/10 14:30:12;;;;;;;13.50;3.43;;;;;;;;;;10385249;22;20222;-73
2023/09/10 14:34:13;;;;;;;13.30;3.50;;;;;;;;;;10387317;22;19999;-73
2023/09/10 14:38:13;;;;;;;12.80;3.60;;;;;;;;;;10385809;22;20014;-73
2023/09/10 14:42:14;;;;;;;9.65;3.58;;;;;;;;;;10386622;22;20328;-73
2023/09/10 14:46:14;;;;;;;16.33;4.00;;;;;;;;;;10384034;22;20034;-74
2023/09/10 14:50:15;;;;;;;13.82;3.58;;;;;;;;;;10389418;22;20435;-74
2023/09/10 14:54:16;;;;;;;15.87;3.73;;;;;;;;;;10391162;22;20432;-74
2023/09/10 14:58:16;;;;;;;12.35;3.78;;;;;;;;;;10388594;22;20621;-73
2023/09/10 15:02:16;;;;;;;13.87;3.40;;;;;;;;;;10359051;22;20415;-73
2023/09/10 15:06:17;;;;;;;16.85;4.03;;;;;;;;;;10385681;22;20018;-72
2023/09/10 15:10:17;;;;;;;17.08;3.50;;;;;;;;;;10383990;22;20007;-73
2023/09/10 15:14:17;;;;;;;12.70;3.35;;;;;;;;;;10383689;22;20014;-73
2023/09/10 15:18:21;;;;;;;13.10;4.00;;;;;;;;;;10384860;22;20019;-73
2023/09/10 15:22:21;;;;;;;15.48;3.40;;;;;;;;;;10383004;22;20372;-73
2023/09/10 15:26:22;;;;;;;17.67;3.60;;;;;;;;;;10386947;22;19996;-73
2023/09/10 15:30:23;;;;;;;24.20;4.40;;;;;;;;;;10383739;22;20018;-73
2023/09/10 15:34:23;;;;;;;16.70;4.03;;;;;;;;;;10385424;22;20034;-73
2023/09/10 15:38:24;;;;;;;18.60;3.87;;;;;;;;;;10385764;22;20003;-73
2023/09/10 15:42:25;;;;;;;15.57;3.90;;;;;;;;;;10384152;22;20246;-73
2023/09/10 15:46:26;;;;;;;17.27;3.58;;;;;;;;;;10383528;22;20114;-73
2023/09/10 15:50:27;;;;;;;13.63;3.23;;;;;;;;;;10381894;22;20015;-72
2023/09/10 15:54:27;;;;;;;12.50;3.60;;;;;;;;;;10382652;22;20010;-73
2023/09/10 15:58:27;;;;;;;15.13;3.53;;;;;;;;;;10384845;22;20011;-73
2023/09/10 16:02:31;;;;;;;13.65;3.55;;;;;;;;;;10385039;22;20026;-73
2023/09/10 16:06:33;;;;;;;13.70;3.58;;;;;;;;;;10385864;22;19999;-73
2023/09/10 16:10:34;;;;;;;11.68;3.28;;;;;;;;;;10379685;22;20082;-73
2023/09/10 16:14:34;;;;;;;12.52;3.05;;;;;;;;;;10386924;22;20041;-73
2023/09/10 16:18:34;;;;;;;11.75;3.20;;;;;;;;;;10385870;22;20015;-73
2023/09/10 16:22:35;;;;;;;13.75;3.45;;;;;;;;;;10382568;22;20007;-73
2023/09/10 16:26:35;;;;;;;14.13;3.20;;;;;;;;;;10384118;22;20806;-73
2023/09/10 16:30:35;;;;;;;11.95;3.60;;;;;;;;;;10382999;22;20369;-73
2023/09/10 16:34:35;;;;;;;9.50;3.50;;;;;;;;;;10384753;22;20027;-73
2023/09/10 16:38:35;;;;;;;17.25;3.35;;;;;;;;;;10384301;22;20065;-73
2023/09/10 16:42:36;;;;;;;12.13;3.20;;;;;;;;;;10381619;22;20433;-72
2023/09/10 16:46:36;;;;;;;11.57;3.30;;;;;;;;;;10381658;22;20042;-74
2023/09/10 16:50:36;;;;;;;19.02;3.60;;;;;;;;;;10382239;22;20027;-73
2023/09/10 16:54:37;;;;;;;17.75;3.53;;;;;;;;;;10383535;22;20022;-73
2023/09/10 16:58:37;;;;;;;15.57;3.67;;;;;;;;;;10382248;22;20414;-73
2023/09/10 17:02:37;;;;;;;11.10;3.15;;;;;;;;;;10377457;22;20088;-73
2023/09/10 17:06:38;;;;;;;9.52;2.80;;;;;;;;;;10383418;22;20065;-73
2023/09/10 17:10:38;;;;;;;9.37;2.53;;;;;;;;;;10382265;22;20459;-73
2023/09/10 17:14:38;;;;;;;16.45;3.60;;;;;;;;;;10383942;22;20265;-73
2023/09/10 17:18:38;;;;;;;16.27;3.63;;;;;;;;;;10382523;22;20011;-73
2023/09/10 17:22:39;;;;;;;8.53;2.80;;;;;;;;;;10380260;22;20003;-73
2023/09/10 17:26:39;;;;;;;14.15;3.40;;;;;;;;;;10382013;22;20007;-73
2023/09/10 17:30:40;;;;;;;8.18;3.00;;;;;;;;;;10374374;22;20015;-73
2023/09/10 17:34:41;;;;;;;6.93;3.13;;;;;;;;;;10382248;22;19991;-73
2023/09/10 17:38:42;;;;;;;9.10;2.92;;;;;;;;;;10380553;22;20396;-73
2023/09/10 17:42:42;;;;;;;10.70;3.10;;;;;;;;;;10378009;22;20007;-73
2023/09/10 17:46:42;;;;;;;12.50;3.28;;;;;;;;;;10381977;22;20716;-73
2023/09/10 17:50:42;;;;;;;8.50;2.90;;;;;;;;;;10377183;22;20030;-73
2023/09/10 17:54:43;;;;;;;9.32;3.17;;;;;;;;;;10379395;22;20007;-73
2023/09/10 17:58:43;;;;;;;9.07;3.10;;;;;;;;;;10378138;22;20700;-73
2023/09/10 18:02:43;;;;;;;10.55;3.38;;;;;;;;;;10378894;22;20464;-73
2023/09/10 18:06:46;;;;;;;6.63;2.90;;;;;;;;;;10383994;22;20003;-73
2023/09/10 18:10:49;;;;;;;14.40;3.72;;;;;;;;;;10379614;22;20065;-73
2023/09/10 18:14:50;;;;;;;12.35;3.50;;;;;;;;;;10383067;22;20011;-73
2023/09/10 18:18:51;;;;;;;11.00;3.50;;;;;;;;;;10382674;22;20011;-72
2023/09/10 18:22:52;;;;;;;8.88;3.20;;;;;;;;;;10380627;22;20003;-72
2023/09/10 18:26:53;;;;;;;11.15;3.75;;;;;;;;;;10383332;22;20007;-73
2023/09/10 18:31:00;;;;;;;11.23;2.97;;;;;;;;;;10380222;22;20017;-72
2023/09/10 18:35:01;;;;;;;12.13;3.22;;;;;;;;;;10385210;22;20354;-72
2023/09/10 18:39:02;;;;;;;8.82;2.83;;;;;;;;;;10381397;22;20636;-72
2023/09/10 18:43:02;;;;;;;10.68;3.17;;;;;;;;;;10379766;22;20035;-73
2023/09/10 18:47:04;;;;;;;11.65;3.15;;;;;;;;;;10382924;22;20114;-74
2023/09/10 18:51:04;;;;;;;12.48;2.92;;;;;;;;;;10383343;22;20380;-74
2023/09/10 18:55:04;;;;;;;7.63;2.70;;;;;;;;;;10379542;22;20007;-74
2023/09/10 18:59:05;;;;;;;8.95;2.78;;;;;;;;;;10379858;22;20387;-74
2023/09/10 19:03:05;;;;;;;11.20;3.33;;;;;;;;;;10378904;22;20073;-74
2023/09/10 19:07:08;;;;;;;9.25;3.15;;;;;;;;;;10379361;22;20006;-74
2023/09/10 19:11:09;;;;;;;8.90;3.03;;;;;;;;;;10380801;22;20836;-75
2023/09/10 19:15:09;;;;;;;8.35;3.05;;;;;;;;;;10379155;22;20644;-75
2023/09/10 19:19:10;;;;;;;13.98;3.33;;;;;;;;;;10388592;22;20894;-74
2023/09/10 19:23:11;;;;;;;6.80;2.88;;;;;;;;;;10387930;22;19999;-75
2023/09/10 19:27:12;;;;;;;8.77;3.10;;;;;;;;;;10389260;22;20443;-74
2023/09/10 19:31:13;;;;;;;9.60;2.97;;;;;;;;;;10389834;22;20015;-74
2023/09/10 19:35:26;;;;;;;9.77;3.10;;;;;;;;;;10390692;22;20070;-77
2023/09/10 19:39:28;;;;;;;9.88;3.00;;;;;;;;;;10389350;22;20011;-75
2023/09/10 19:43:31;;;;;;;16.48;3.50;;;;;;;;;;10383049;22;20062;-73
2023/09/10 19:47:32;;;;;;;10.48;3.25;;;;;;;;;;10377348;22;20021;-74
2023/09/10 19:51:33;;;;;;;13.60;3.45;;;;;;;;;;10377324;22;20076;-74
2023/09/10 19:55:33;;;;;;;11.75;3.53;;;;;;;;;;10376900;22;20011;-74
2023/09/10 19:59:34;;;;;;;7.50;3.10;;;;;;;;;;10378151;22;20038;-74
2023/09/10 20:03:34;;;;;;;9.85;3.20;;;;;;;;;;10377323;22;20011;-75
2023/09/10 20:07:34;;;;;;;8.80;3.28;;;;;;;;;;10384507;22;20007;-75
2023/09/10 20:11:35;;;;;;;15.77;3.78;;;;;;;;;;10380228;22;20003;-75
2023/09/10 20:15:35;;;;;;;9.68;3.17;;;;;;;;;;10373555;22;20007;-75
2023/09/10 20:19:36;;;;;;;14.63;3.60;;;;;;;;;;10379243;22;20506;-73
2023/09/10 20:23:38;;;;;;;7.60;2.80;;;;;;;;;;10379625;22;20236;-74
2023/09/10 20:27:39;;;;;;;10.57;3.67;;;;;;;;;;10385622;22;19995;-74
2023/09/10 20:31:40;;;;;;;8.82;3.45;;;;;;;;;;10377642;22;20019;-74
2023/09/10 20:35:40;;;;;;;8.98;3.55;;;;;;;;;;10382084;22;20011;-74
2023/09/10 20:39:41;;;;;;;6.05;3.00;;;;;;;;;;10381653;22;20003;-74
2023/09/10 20:43:42;;;;;;;9.65;3.28;;;;;;;;;;10381349;22;20015;-74
2023/09/10 20:47:43;;;;;;;14.18;3.83;;;;;;;;;;10375081;22;20007;-75
2023/09/10 20:51:49;;;;;;;11.02;3.60;;;;;;;;;;10387469;22;20007;-75
2023/09/10 20:55:59;;;;;;;10.27;3.47;;;;;;;;;;10383954;22;20385;-75
2023/09/10 20:59:59;;;;;;;15.00;3.90;;;;;;;;;;10385578;22;20011;-75
2023/09/10 21:04:01;;;;;;;9.38;3.20;;;;;;;;;;10382242;22;20038;-75
2023/09/10 21:08:05;;;;;;;11.38;3.53;;;;;;;;;;10383845;22;19995;-75
2023/09/10 21:12:05;;;;;;;12.05;3.70;;;;;;;;;;10384167;22;20099;-75
2023/09/10 21:16:06;;;;;;;8.53;3.33;;;;;;;;;;10386678;22;20765;-75
2023/09/10 21:20:08;;;;;;;11.10;3.45;;;;;;;;;;10382857;22;20650;-75
2023/09/10 21:24:11;;;;;;;9.55;3.47;;;;;;;;;;10388373;22;21052;-75
2023/09/10 21:28:12;;;;;;;11.57;3.38;;;;;;;;;;10384299;22;20101;-74
2023/09/10 21:32:13;;;;;;;12.95;3.60;;;;;;;;;;10381203;22;20106;-74
2023/09/10 21:36:13;;;;;;;11.00;3.42;;;;;;;;;;10386331;22;20765;-74
2023/09/10 21:40:13;;;;;;;10.48;3.50;;;;;;;;;;10375903;22;20006;-74
2023/09/10 21:44:13;;;;;;;9.33;3.17;;;;;;;;;;10380207;22;20117;-74
2023/09/10 21:48:13;;;;;;;9.53;3.40;;;;;;;;;;10351343;22;20586;-74
2023/09/10 21:52:14;;;;;;;15.75;3.78;;;;;;;;;;10373771;22;20022;-75
2023/09/10 21:56:16;;;;;;;14.60;3.55;;;;;;;;;;10378857;22;20026;-74
2023/09/10 22:00:16;;;;;;;15.73;3.47;;;;;;;;;;10375039;22;20034;-75
2023/09/10 22:04:17;;;;;;;9.77;3.45;;;;;;;;;;10380444;22;20003;-74
2023/09/10 22:08:17;;;;;;;15.07;3.42;;;;;;;;;;10375850;22;20514;-75
2023/09/10 22:12:17;;;;;;;12.20;3.37;;;;;;;;;;10382603;22;19999;-74
2023/09/10 22:16:18;;;;;;;14.40;3.50;;;;;;;;;;10383686;22;20015;-74
2023/09/10 22:20:18;;;;;;;13.07;3.58;;;;;;;;;;10380384;22;20897;-73
2023/09/10 22:24:18;;;;;;;19.95;3.60;;;;;;;;;;10382933;22;20488;-74
2023/09/10 22:28:20;;;;;;;11.90;3.60;;;;;;;;;;10385197;22;20060;-74
2023/09/10 22:32:20;;;;;;;10.95;3.35;;;;;;;;;;10365598;22;20324;-75
2023/09/10 22:36:20;;;;;;;13.85;3.40;;;;;;;;;;10353816;22;20007;-74
2023/09/10 22:40:20;;;;;;;14.20;3.90;;;;;;;;;;10384407;22;20000;-74
2023/09/10 22:44:21;;;;;;;12.02;3.42;;;;;;;;;;10380365;22;20114;-74
2023/09/10 22:48:24;;;;;;;14.90;3.20;;;;;;;;;;10381522;22;20011;-74
2023/09/10 22:52:24;;;;;;;16.38;3.38;;;;;;;;;;10382840;22;20007;-74
2023/09/10 22:56:25;;;;;;;10.33;3.50;;;;;;;;;;10385815;22;20074;-74
2023/09/10 23:00:25;;;;;;;11.00;3.45;;;;;;;;;;10381399;22;20011;-73
2023/09/10 23:04:27;;;;;;;9.87;3.03;;;;;;;;;;10385041;22;20036;-75
2023/09/10 23:08:27;;;;;;;11.82;4.32;;;;;;;;;;10383556;22;20664;-74
2023/09/10 23:12:30;;;;;;;10.18;3.83;;;;;;;;;;10383047;22;20671;-73
2023/09/10 23:16:30;;;;;;;12.98;3.17;;;;;;;;;;10380801;22;20039;-74
2023/09/10 23:20:30;;;;;;;16.25;3.13;;;;;;;;;;10381339;22;20844;-75
2023/09/10 23:24:31;;;;;;;16.43;3.80;;;;;;;;;;10385228;22;20968;-75
2023/09/10 23:28:31;;;;;;;8.63;3.33;;;;;;;;;;10387418;22;20413;-75
2023/09/10 23:32:31;;;;;;;10.80;3.23;;;;;;;;;;10384010;22;20100;-75
2023/09/10 23:36:31;;;;;;;15.15;3.75;;;;;;;;;;10384447;22;20110;-74